Time;durP1;ratioP1;P1;durP2;ratioP2;P2;SDS_P1;SDS_P2;PMS_P1;PMS_P2;Temp;Humidity;BMP_temperature;BMP_pressure;BME280_temperature;BME280_humidity;BME280_pressure;Samples;Min_cycle;Max_cycle;Signal;HPM_P1;HPM_P2
2022/04/01 00:00:41;;;;;;;14.20;8.87;;;;;;;;;;5131187;28;20446;-69
2022/04/01 00:03:09;;;;;;;10.13;7.40;;;;;;;;;;5126280;27;20447;-69
2022/04/01 00:05:38;;;;;;;11.97;8.53;;;;;;;;;;5127587;27;20443;-69
2022/04/01 00:08:08;;;;;;;10.63;7.03;;;;;;;;;;5126394;27;20451;-69
2022/04/01 00:10:35;;;;;;;9.27;6.77;;;;;;;;;;5119898;28;20445;-70
2022/04/01 00:13:02;;;;;;;10.47;6.83;;;;;;;;;;5126547;27;20475;-70
2022/04/01 00:15:29;;;;;;;10.83;7.53;;;;;;;;;;5122508;27;20447;-69
2022/04/01 00:17:57;;;;;;;12.50;8.37;;;;;;;;;;5118036;27;20480;-69
2022/04/01 00:20:25;;;;;;;11.17;6.73;;;;;;;;;;5130684;28;20526;-70
2022/04/01 00:22:54;;;;;;;10.37;7.00;;;;;;;;;;5127010;27;20439;-70
2022/04/01 00:25:22;;;;;;;12.27;7.67;;;;;;;;;;5122666;28;20575;-69
2022/04/01 00:27:50;;;;;;;10.33;6.40;;;;;;;;;;5125189;28;20447;-69
2022/04/01 00:30:18;;;;;;;8.93;7.30;;;;;;;;;;5127100;27;20446;-68
2022/04/01 00:32:45;;;;;;;10.67;7.43;;;;;;;;;;5131473;27;20858;-70
2022/04/01 00:35:12;;;;;;;12.43;7.73;;;;;;;;;;5130655;27;20447;-69
2022/04/01 00:37:40;;;;;;;10.73;6.80;;;;;;;;;;5114656;27;20470;-69
2022/04/01 00:40:09;;;;;;;9.53;7.10;;;;;;;;;;5112167;27;20478;-69
2022/04/01 00:42:38;;;;;;;11.10;7.57;;;;;;;;;;5133994;27;20458;-69
2022/04/01 00:45:06;;;;;;;10.43;6.97;;;;;;;;;;5126659;27;20961;-69
2022/04/01 00:47:33;;;;;;;10.53;6.70;;;;;;;;;;5119488;27;20530;-70
2022/04/01 00:50:00;;;;;;;11.40;8.37;;;;;;;;;;5133702;27;20442;-69
2022/04/01 00:52:27;;;;;;;9.83;6.80;;;;;;;;;;5135360;27;20541;-69
2022/04/01 00:54:54;;;;;;;12.17;7.97;;;;;;;;;;5123595;27;20529;-69
2022/04/01 00:57:22;;;;;;;10.60;7.50;;;;;;;;;;5130320;27;21001;-69
2022/04/01 00:59:50;;;;;;;9.60;6.93;;;;;;;;;;5133786;27;20454;-70
2022/04/01 01:02:17;;;;;;;11.27;8.37;;;;;;;;;;5127327;27;20443;-69
2022/04/01 01:04:45;;;;;;;13.80;7.43;;;;;;;;;;5129486;27;20447;-70
2022/04/01 01:07:13;;;;;;;10.50;7.30;;;;;;;;;;5129991;27;20451;-69
2022/04/01 01:09:40;;;;;;;9.93;7.13;;;;;;;;;;5124568;27;20545;-69
2022/04/01 01:12:07;;;;;;;12.17;8.23;;;;;;;;;;5132146;27;21424;-69
2022/04/01 01:14:36;;;;;;;11.30;8.57;;;;;;;;;;5133518;27;20449;-69
2022/04/01 01:17:07;;;;;;;12.90;7.60;;;;;;;;;;5132483;27;20443;-69
2022/04/01 01:19:35;;;;;;;8.97;6.43;;;;;;;;;;5128636;27;20440;-69
2022/04/01 01:22:02;;;;;;;9.83;7.00;;;;;;;;;;5125894;27;20447;-70
2022/04/01 01:24:31;;;;;;;9.40;6.80;;;;;;;;;;5132269;27;20938;-69
2022/04/01 01:26:59;;;;;;;10.70;6.83;;;;;;;;;;5128328;27;20444;-69
2022/04/01 01:29:27;;;;;;;9.13;6.93;;;;;;;;;;5126267;27;20871;-69
2022/04/01 01:31:55;;;;;;;8.80;6.20;;;;;;;;;;5128782;27;21000;-69
2022/04/01 01:34:23;;;;;;;8.23;5.90;;;;;;;;;;5122020;27;20492;-69
2022/04/01 01:36:50;;;;;;;10.20;6.80;;;;;;;;;;5127216;27;20542;-69
2022/04/01 01:39:17;;;;;;;15.27;7.67;;;;;;;;;;5125487;27;20847;-69
2022/04/01 01:41:46;;;;;;;9.00;6.27;;;;;;;;;;5108014;27;20951;-69
2022/04/01 01:44:14;;;;;;;8.70;6.63;;;;;;;;;;5122411;27;20487;-69
2022/04/01 01:46:41;;;;;;;8.20;6.13;;;;;;;;;;5128959;27;20942;-70
2022/04/01 01:49:08;;;;;;;8.97;6.70;;;;;;;;;;5126152;27;20450;-69
2022/04/01 01:57:07;;;;;;;8.60;5.87;;;;;;;;;;5128897;27;21004;-69
2022/04/01 01:59:34;;;;;;;8.80;6.97;;;;;;;;;;5109742;27;20444;-69
2022/04/01 02:02:05;;;;;;;7.80;6.23;;;;;;;;;;5107190;27;20443;-70
2022/04/01 02:04:32;;;;;;;10.03;6.80;;;;;;;;;;5100296;27;20507;-69
2022/04/01 02:06:59;;;;;;;9.63;7.60;;;;;;;;;;5117125;27;20536;-69
2022/04/01 02:09:27;;;;;;;10.73;6.63;;;;;;;;;;5114501;27;20454;-69
2022/04/01 02:11:54;;;;;;;9.33;6.30;;;;;;;;;;5127511;27;20471;-69
2022/04/01 02:14:22;;;;;;;8.50;6.10;;;;;;;;;;5118501;27;20487;-68
2022/04/01 02:16:50;;;;;;;9.43;6.50;;;;;;;;;;5131966;27;20447;-69
2022/04/01 02:19:21;;;;;;;7.93;6.00;;;;;;;;;;5117327;27;20562;-69
2022/04/01 02:21:49;;;;;;;10.40;6.83;;;;;;;;;;5129345;27;20443;-69
2022/04/01 02:24:17;;;;;;;8.90;6.00;;;;;;;;;;5128531;27;20446;-69
2022/04/01 02:26:45;;;;;;;10.37;6.83;;;;;;;;;;5133174;27;20873;-71
2022/04/01 02:29:12;;;;;;;8.50;6.90;;;;;;;;;;5133039;27;20450;-70
2022/04/01 02:31:41;;;;;;;11.93;7.30;;;;;;;;;;5128038;27;20537;-69
2022/04/01 02:34:08;;;;;;;10.73;7.53;;;;;;;;;;5125485;27;20530;-69
2022/04/01 02:36:35;;;;;;;8.90;6.87;;;;;;;;;;5124357;27;20444;-69
2022/04/01 02:39:03;;;;;;;8.93;6.13;;;;;;;;;;5117753;27;20498;-69
2022/04/01 02:41:31;;;;;;;9.90;7.07;;;;;;;;;;5130102;27;20938;-70
2022/04/01 02:44:08;;;;;;;12.13;7.80;;;;;;;;;;5131304;27;20448;-69
2022/04/01 02:46:35;;;;;;;11.30;6.70;;;;;;;;;;5112345;27;20487;-70
2022/04/01 02:49:06;;;;;;;10.07;6.83;;;;;;;;;;5127215;27;20837;-69
2022/04/01 02:51:33;;;;;;;8.20;5.70;;;;;;;;;;5132678;27;20503;-69
2022/04/01 02:54:03;;;;;;;10.53;7.83;;;;;;;;;;5130250;27;20442;-70
2022/04/01 02:56:30;;;;;;;10.67;6.90;;;;;;;;;;5124773;27;20446;-69
2022/04/01 02:58:57;;;;;;;7.43;6.40;;;;;;;;;;5123117;27;20869;-69
2022/04/01 03:01:25;;;;;;;9.43;6.33;;;;;;;;;;5126978;27;20533;-69
2022/04/01 03:03:52;;;;;;;10.53;7.83;;;;;;;;;;5128703;27;20947;-70
2022/04/01 03:06:20;;;;;;;8.33;7.20;;;;;;;;;;5127302;27;20802;-70
2022/04/01 03:08:47;;;;;;;10.27;6.87;;;;;;;;;;5126058;27;20834;-70
2022/04/01 03:11:15;;;;;;;9.33;6.67;;;;;;;;;;5125687;27;20458;-70
2022/04/01 03:13:42;;;;;;;11.10;7.33;;;;;;;;;;5125105;27;20999;-70
2022/04/01 03:16:09;;;;;;;10.80;7.57;;;;;;;;;;5125580;27;20451;-70
2022/04/01 03:18:40;;;;;;;11.90;8.13;;;;;;;;;;5118355;27;20475;-70
2022/04/01 03:21:08;;;;;;;11.40;8.50;;;;;;;;;;5131031;27;20475;-69
2022/04/01 03:23:38;;;;;;;10.00;7.57;;;;;;;;;;5125067;27;20447;-69
2022/04/01 03:26:05;;;;;;;10.20;6.77;;;;;;;;;;5115601;27;20463;-68
2022/04/01 03:28:32;;;;;;;13.27;8.03;;;;;;;;;;5128203;27;20455;-69
2022/04/01 03:30:59;;;;;;;11.00;8.50;;;;;;;;;;5127010;27;20930;-68
2022/04/01 03:33:27;;;;;;;13.00;8.83;;;;;;;;;;5123513;27;20446;-69
2022/04/01 03:35:54;;;;;;;10.97;7.43;;;;;;;;;;5120534;27;20447;-69
2022/04/01 03:38:21;;;;;;;11.47;8.07;;;;;;;;;;5124379;27;20533;-70
2022/04/01 03:40:51;;;;;;;12.77;8.80;;;;;;;;;;5124106;27;20458;-70
2022/04/01 03:43:21;;;;;;;13.57;8.77;;;;;;;;;;5130327;27;20454;-69
2022/04/01 03:45:49;;;;;;;13.83;8.33;;;;;;;;;;5123235;27;20451;-70
2022/04/01 03:48:19;;;;;;;14.37;9.17;;;;;;;;;;5125880;27;20947;-69
2022/04/01 03:50:49;;;;;;;10.67;7.20;;;;;;;;;;5130285;27;20529;-69
2022/04/01 03:53:18;;;;;;;11.73;8.40;;;;;;;;;;5126768;27;20529;-69
2022/04/01 03:55:48;;;;;;;13.57;8.10;;;;;;;;;;5121231;27;20453;-69
2022/04/01 03:58:18;;;;;;;12.70;7.60;;;;;;;;;;5126888;27;20471;-69
2022/04/01 04:00:45;;;;;;;12.23;7.90;;;;;;;;;;5121682;27;20474;-69
2022/04/01 04:03:13;;;;;;;12.30;8.30;;;;;;;;;;5130105;27;20450;-70
2022/04/01 04:05:40;;;;;;;9.90;6.90;;;;;;;;;;5127085;27;20445;-69
2022/04/01 04:08:10;;;;;;;13.13;8.40;;;;;;;;;;5125855;27;20457;-69
2022/04/01 04:10:37;;;;;;;15.37;8.73;;;;;;;;;;5115372;28;20449;-69
2022/04/01 04:13:06;;;;;;;13.30;8.63;;;;;;;;;;5128107;28;20450;-70
2022/04/01 04:15:40;;;;;;;12.43;8.27;;;;;;;;;;5129246;28;20457;-70
2022/04/01 04:18:10;;;;;;;11.27;8.27;;;;;;;;;;5122516;27;20477;-70
2022/04/01 04:20:40;;;;;;;10.57;7.40;;;;;;;;;;5131540;28;20455;-70
2022/04/01 04:23:10;;;;;;;11.70;7.83;;;;;;;;;;5124044;28;20476;-69
2022/04/01 04:25:38;;;;;;;14.23;9.50;;;;;;;;;;5131078;27;20454;-69
2022/04/01 04:28:09;;;;;;;12.10;7.90;;;;;;;;;;5122308;27;20498;-74
2022/04/01 04:30:40;;;;;;;14.60;8.50;;;;;;;;;;5119709;28;20448;-70
2022/04/01 04:33:08;;;;;;;12.23;8.33;;;;;;;;;;5130700;27;20845;-69
2022/04/01 04:35:37;;;;;;;13.43;8.47;;;;;;;;;;5109153;28;20449;-70
2022/04/01 04:38:04;;;;;;;11.77;7.73;;;;;;;;;;5116799;27;20537;-70
2022/04/01 04:40:32;;;;;;;11.53;7.90;;;;;;;;;;5131929;27;20450;-69
2022/04/01 04:42:59;;;;;;;11.40;7.63;;;;;;;;;;5131042;27;20532;-70
2022/04/01 04:45:27;;;;;;;10.60;6.90;;;;;;;;;;5130246;27;20448;-72
2022/04/01 04:47:57;;;;;;;13.80;7.90;;;;;;;;;;5128651;28;20438;-68
2022/04/01 04:50:24;;;;;;;21.50;12.27;;;;;;;;;;5131525;27;20438;-73
2022/04/01 04:52:53;;;;;;;14.70;8.73;;;;;;;;;;5120004;28;20479;-71
2022/04/01 04:55:21;;;;;;;10.27;7.50;;;;;;;;;;5131183;28;20441;-72
2022/04/01 04:57:49;;;;;;;11.33;6.87;;;;;;;;;;5131033;27;21103;-71
2022/04/01 05:00:19;;;;;;;9.57;6.93;;;;;;;;;;5119784;27;21036;-69
2022/04/01 05:02:49;;;;;;;12.13;8.00;;;;;;;;;;5116375;28;20448;-74
2022/04/01 05:05:23;;;;;;;12.83;8.47;;;;;;;;;;5130451;27;20443;-72
2022/04/01 05:07:55;;;;;;;13.77;7.80;;;;;;;;;;5126763;27;20453;-74
2022/04/01 05:10:24;;;;;;;13.37;7.70;;;;;;;;;;5131190;28;20459;-72
2022/04/01 05:12:58;;;;;;;12.90;7.80;;;;;;;;;;5131712;27;20540;-73
2022/04/01 05:15:27;;;;;;;12.00;7.27;;;;;;;;;;5130945;27;20476;-72
2022/04/01 05:17:56;;;;;;;11.77;7.77;;;;;;;;;;5134660;27;20450;-72
2022/04/01 05:20:28;;;;;;;9.77;6.17;;;;;;;;;;5134647;27;20488;-71
2022/04/01 05:23:00;;;;;;;14.17;7.10;;;;;;;;;;5134748;27;20451;-72
2022/04/01 05:25:29;;;;;;;11.73;7.53;;;;;;;;;;5134966;27;20473;-72
2022/04/01 05:28:01;;;;;;;11.13;7.07;;;;;;;;;;5133774;27;20447;-72
2022/04/01 05:30:30;;;;;;;13.37;8.60;;;4.60;99.90;;;;;;5134595;27;21014;-71
2022/04/01 05:33:00;;;;;;;10.43;7.40;;;4.60;99.90;;;;;;5134172;27;20535;-71
2022/04/01 05:35:34;;;;;;;13.30;8.37;;;5.20;99.90;;;;;;5121043;27;20805;-71
2022/04/01 05:38:01;;;;;;;10.87;7.37;;;5.90;99.90;;;;;;5119478;27;20778;-71
2022/04/01 05:40:30;;;;;;;10.10;7.00;;;5.00;99.90;;;;;;5134690;27;20474;-72
2022/04/01 05:42:58;;;;;;;10.10;6.90;;;4.60;99.90;;;;;;5134094;27;20438;-72
2022/04/01 05:45:27;;;;;;;10.03;5.97;;;4.80;99.90;;;;;;5136563;27;20443;-73
2022/04/01 05:47:55;;;;;;;8.73;6.83;;;5.00;99.90;;;;;;5133715;27;20443;-72
2022/04/01 05:50:23;;;;;;;12.30;7.63;;;5.00;99.90;;;;;;5134287;27;20541;-71
2022/04/01 05:52:53;;;;;;;11.33;7.80;;;4.70;99.90;;;;;;5134206;27;20524;-72
2022/04/01 05:55:23;;;;;;;11.73;7.70;;;4.90;99.90;;;;;;5134583;27;20501;-72
2022/04/01 05:57:50;;;;;;;10.73;7.00;;;5.20;99.90;;;;;;5133509;27;20526;-73
2022/04/01 06:00:18;;;;;;;12.40;8.10;;;5.40;99.90;;;;;;5133662;27;20465;-71
2022/04/01 06:03:08;;;;;;;10.00;6.20;;;5.30;99.90;;;;;;5134010;27;20538;-72
2022/04/01 06:05:36;;;;;;;10.50;7.60;;;5.40;99.90;;;;;;5133873;27;20446;-72
2022/04/01 06:08:22;;;;;;;12.67;6.93;;;5.30;99.90;;;;;;5124938;27;20454;-72
2022/04/01 06:11:03;;;;;;;11.40;7.53;;;4.70;99.90;;;;;;5132908;27;20521;-72
2022/04/01 06:13:45;;;;;;;10.90;6.63;;;4.60;99.90;;;;;;5133801;27;20532;-72
2022/04/01 06:16:20;;;;;;;11.73;7.43;;;5.00;99.90;;;;;;5133572;27;20433;-72
2022/04/01 06:18:57;;;;;;;10.47;6.43;;;4.90;99.90;;;;;;5132977;27;20472;-72
2022/04/01 06:21:25;;;;;;;10.70;7.13;;;5.50;99.90;;;;;;5134225;27;20521;-72
2022/04/01 06:24:10;;;;;;;13.17;8.00;;;;;;;;;;5133329;27;20445;-72
2022/04/01 06:26:41;;;;;;;10.90;7.80;;;6.00;99.90;;;;;;5132623;27;20526;-72
2022/04/01 06:29:35;;;;;;;11.90;7.00;;;5.70;99.90;;;;;;5133004;27;20463;-72
2022/04/01 06:32:05;;;;;;;10.40;7.00;;;5.30;99.90;;;;;;5118255;27;20454;-72
2022/04/01 06:34:42;;;;;;;9.50;7.47;;;5.00;99.90;;;;;;5133435;27;20473;-72
2022/04/01 06:37:17;;;;;;;10.87;7.87;;;5.10;99.90;;;;;;5123458;27;20878;-72
2022/04/01 06:39:50;;;;;;;11.40;7.80;;;5.50;99.90;;;;;;5129414;27;20552;-73
2022/04/01 06:42:20;;;;;;;10.73;7.63;;;5.20;99.90;;;;;;5132637;27;20442;-73
2022/04/01 06:44:48;;;;;;;10.30;7.60;;;5.00;99.90;;;;;;5133241;27;20468;-73
2022/04/01 06:47:15;;;;;;;11.30;7.67;;;4.80;99.90;;;;;;5132190;27;20905;-72
2022/04/01 06:49:42;;;;;;;10.10;7.57;;;4.70;99.90;;;;;;5132781;27;20964;-72
2022/04/01 06:52:09;;;;;;;11.77;7.10;;;4.70;99.90;;;;;;5132646;27;20453;-73
2022/04/01 06:54:36;;;;;;;11.37;7.57;;;4.40;99.90;;;;;;5132813;27;20451;-73
2022/04/01 06:57:06;;;;;;;12.27;7.63;;;6.40;99.90;;;;;;5131846;27;20442;-74
2022/04/01 06:59:34;;;;;;;12.33;8.20;;;4.90;99.90;;;;;;5133040;27;20483;-72
2022/04/01 07:02:01;;;;;;;12.30;8.50;;;5.30;99.90;;;;;;5132427;27;20451;-73
2022/04/01 07:04:28;;;;;;;13.13;8.23;;;5.20;99.90;;;;;;5132958;27;20476;-73
2022/04/01 07:06:56;;;;;;;13.67;9.40;;;5.20;99.90;;;;;;5131688;27;20447;-73
2022/04/01 07:09:23;;;;;;;11.60;7.77;;;5.10;99.90;;;;;;5121387;27;20465;-74
2022/04/01 07:11:50;;;;;;;11.67;8.70;;;5.10;99.90;;;;;;5132371;27;20450;-72
2022/04/01 07:14:18;;;;;;;13.40;8.40;;;5.20;99.90;;;;;;5132006;27;20517;-73
2022/04/01 07:16:45;;;;;;;13.13;8.40;;;5.30;99.90;;;;;;5132481;27;20494;-72
2022/04/01 07:19:12;;;;;;;11.63;8.37;;;5.10;99.90;;;;;;5132181;27;20880;-74
2022/04/01 07:21:39;;;;;;;14.53;8.63;;;4.80;99.90;;;;;;5132048;27;20947;-74
2022/04/01 07:24:06;;;;;;;11.20;8.50;;;5.10;99.90;;;;;;5131927;27;20769;-72
2022/04/01 07:26:33;;;;;;;12.23;8.57;;;4.90;99.90;;;;;;5131805;27;20475;-74
2022/04/01 07:29:01;;;;;;;13.20;8.80;;;4.90;99.90;;;;;;5132315;27;20457;-72
2022/04/01 07:34:25;;;;;;;11.40;7.73;;;5.50;99.90;;;;;;5088978;28;20430;-73
2022/04/01 07:36:52;;;;;;;12.63;8.80;;;4.90;99.90;;;;;;5114343;27;20458;-73
2022/04/01 07:39:19;;;;;;;12.00;9.20;;;5.70;99.90;;;;;;5124049;27;20496;-73
2022/04/01 07:41:46;;;;;;;10.30;7.83;;;4.60;99.90;;;;;;5118822;27;20538;-72
2022/04/01 07:44:13;;;;;;;12.13;9.17;;;4.70;99.90;;;;;;5131494;27;20444;-72
2022/04/01 07:46:41;;;;;;;11.53;8.50;;;4.80;99.90;;;;;;5131892;27;20474;-72
2022/04/01 07:49:08;;;;;;;10.20;7.17;;;6.10;99.90;;;;;;5131149;27;20504;-72
2022/04/01 07:51:35;;;;;;;10.67;8.03;;;4.50;99.90;;;;;;5132183;27;20497;-73
2022/04/01 07:54:02;;;;;;;10.10;7.97;;;4.50;99.90;;;;;;5131157;27;20451;-72
2022/04/01 07:56:31;;;;;;;12.27;9.50;;;4.40;99.90;;;;;;5131812;27;20481;-73
2022/04/01 07:58:58;;;;;;;13.67;9.00;;;4.60;99.90;;;;;;5131358;27;20538;-72
2022/04/01 08:01:25;;;;;;;11.37;9.10;;;5.10;99.90;;;;;;5132117;27;20527;-73
2022/04/01 08:03:54;;;;;;;13.50;7.57;;;4.90;99.90;;;;;;5131755;27;20922;-73
2022/04/01 08:06:20;;;;;;;13.27;9.03;;;4.80;99.90;;;;;;5132033;27;20505;-73
2022/04/01 08:08:47;;;;;;;13.23;9.03;;;4.70;99.90;;;;;;5119303;27;20459;-74
2022/04/01 08:11:14;;;;;;;12.10;8.60;;;4.70;99.90;;;;;;5131532;27;20450;-72
2022/04/01 08:13:41;;;;;;;11.47;8.90;;;4.50;99.90;;;;;;5131975;27;20460;-72
2022/04/01 08:16:10;;;;;;;13.53;9.70;;;4.60;99.90;;;;;;5131396;27;20455;-73
2022/04/01 08:18:37;;;;;;;15.07;9.77;;;4.80;99.90;;;;;;5131247;27;21000;-71
2022/04/01 08:21:05;;;;;;;17.37;9.20;;;4.80;99.90;;;;;;5130799;27;21005;-73
2022/04/01 08:23:35;;;;;;;15.23;8.70;;;4.60;99.90;;;;;;5131385;27;20495;-73
2022/04/01 08:26:02;;;;;;;15.17;10.27;;;5.50;99.90;;;;;;5131210;27;20521;-72
2022/04/01 08:28:29;;;;;;;16.03;9.27;;;5.10;99.90;;;;;;5130949;28;20924;-72
2022/04/01 08:30:55;;;;;;;12.40;9.40;;;5.00;99.90;;;;;;5131645;27;20538;-71
2022/04/01 08:33:23;;;;;;;12.60;9.13;;;4.90;99.90;;;;;;5131456;27;20503;-72
2022/04/01 08:35:49;;;;;;;12.80;8.93;;;4.80;99.90;;;;;;5131781;27;20444;-72
2022/04/01 08:38:18;;;;;;;11.40;8.50;;;6.60;99.90;;;;;;5116326;27;20476;-72
2022/04/01 08:40:45;;;;;;;13.67;9.03;;;4.90;99.90;;;;;;5131431;27;20885;-72
2022/04/01 08:43:12;;;;;;;14.43;9.33;;;6.40;99.90;;;;;;5131012;27;20448;-73
2022/04/01 08:45:39;;;;;;;15.10;9.90;;;5.10;99.90;;;;;;5131740;27;20449;-72
2022/04/01 08:48:10;;;;;;;10.00;8.90;;;5.00;99.90;;;;;;5130299;27;20510;-72
2022/04/01 08:50:37;;;;;;;13.97;10.10;;;4.60;99.90;;;;;;5133493;27;20487;-73
2022/04/01 08:53:05;;;;;;;14.63;9.30;;;4.90;99.90;;;;;;5134746;27;20458;-72
2022/04/01 08:55:33;;;;;;;10.63;8.20;;;4.90;99.90;;;;;;5135500;27;20506;-73
2022/04/01 08:58:00;;;;;;;14.20;8.40;;;5.00;99.90;;;;;;5121099;27;20566;-72
2022/04/01 09:00:34;;;;;;;13.43;9.33;;;5.10;99.90;;;;;;5135068;27;20569;-72
2022/04/01 09:03:03;;;;;;;13.30;9.53;;;5.10;99.90;;;;;;5135491;27;20446;-72
2022/04/01 09:05:30;;;;;;;11.60;9.20;;;6.50;99.90;;;;;;5135730;27;20457;-73
2022/04/01 09:08:02;;;;;;;11.30;8.57;;;5.00;99.90;;;;;;5128378;27;20513;-72
2022/04/01 09:10:29;;;;;;;12.90;8.07;;;4.70;99.90;;;;;;5130881;27;20530;-72
2022/04/01 09:12:58;;;;;;;9.67;7.33;;;4.90;99.90;;;;;;5134898;27;20509;-72
2022/04/01 09:15:40;;;;;;;10.20;7.57;;;5.00;99.90;;;;;;5134955;27;20442;-72
2022/04/01 09:18:07;;;;;;;9.20;7.20;;;4.90;99.90;;;;;;5134181;27;20534;-71
2022/04/01 09:20:43;;;;;;;11.17;8.37;;;5.00;99.90;;;;;;5134676;27;20477;-71
2022/04/01 09:23:10;;;;;;;10.07;7.63;;;5.20;99.90;;;;;;5134226;27;20473;-72
2022/04/01 09:25:37;;;;;;;9.53;7.00;;;5.00;99.90;;;;;;5107153;27;20443;-72
2022/04/01 09:28:06;;;;;;;10.60;6.67;;;5.80;99.90;;;;;;5133362;27;20949;-72
2022/04/01 09:30:33;;;;;;;9.30;7.03;;;5.10;99.90;;;;;;5134825;27;20470;-73
2022/04/01 09:33:02;;;;;;;10.20;7.83;;;5.00;99.90;;;;;;5134089;27;20448;-71
2022/04/01 09:35:31;;;;;;;8.27;6.00;;;5.10;99.90;;;;;;5134634;27;20445;-72
2022/04/01 09:37:59;;;;;;;10.70;7.03;;;4.80;99.90;;;;;;5119994;27;20536;-71
2022/04/01 09:40:27;;;;;;;10.90;7.33;;;4.90;99.90;;;;;;5134407;27;20560;-73
2022/04/01 09:42:55;;;;;;;8.67;6.53;;;5.30;99.90;;;;;;5134183;27;20480;-72
2022/04/01 09:45:26;;;;;;;10.23;6.40;;;4.10;99.90;;;;;;5134384;27;20444;-71
2022/04/01 09:48:03;;;;;;;12.40;7.40;;;5.10;99.90;;;;;;5134065;27;20491;-72
2022/04/01 09:50:33;;;;;;;9.60;5.70;;;5.00;99.90;;;;;;5134645;27;20515;-72
2022/04/01 09:53:08;;;;;;;9.07;7.10;;;5.00;99.90;;;;;;5133489;27;20477;-72
2022/04/01 09:55:36;;;;;;;9.80;6.87;;;4.80;99.90;;;;;;5134179;27;20499;-72
2022/04/01 09:58:04;;;;;;;9.30;6.40;;;4.60;99.90;;;;;;5133018;27;20498;-72
2022/04/01 10:00:33;;;;;;;9.33;6.90;;;4.80;99.90;;;;;;5134178;27;20481;-72
2022/04/01 10:03:00;;;;;;;9.17;7.27;;;4.70;99.90;;;;;;5132989;27;20460;-72
2022/04/01 10:05:27;;;;;;;13.90;7.00;;;4.60;99.90;;;;;;5133781;27;20446;-73
2022/04/01 10:07:56;;;;;;;10.23;6.70;;;4.60;99.90;;;;;;5127029;27;20484;-72
2022/04/01 10:10:24;;;;;;;9.33;6.07;;;4.60;99.90;;;;;;5128792;27;20510;-72
2022/04/01 10:12:53;;;;;;;11.20;6.87;;;4.60;99.90;;;;;;5134007;27;20479;-73
2022/04/01 10:15:21;;;;;;;9.40;6.70;;;4.50;99.90;;;;;;5134005;27;20538;-73
2022/04/01 10:17:53;;;;;;;9.50;6.80;;;4.60;99.90;;;;;;5133787;27;20471;-73
2022/04/01 10:20:22;;;;;;;8.93;5.77;;;4.60;99.90;;;;;;5133756;27;20600;-73
2022/04/01 10:22:49;;;;;;;7.87;6.07;;;6.30;99.90;;;;;;5133925;27;20453;-73
2022/04/01 10:25:18;;;;;;;8.53;5.93;;;4.90;99.90;;;;;;5133140;27;20437;-73
2022/04/01 10:27:50;;;;;;;8.37;5.60;;;4.60;99.90;;;;;;5133020;27;20534;-72
2022/04/01 10:30:19;;;;;;;6.90;4.43;;;3.80;99.90;;;;;;5133103;27;20449;-73
2022/04/01 10:32:47;;;;;;;5.30;4.03;;;4.50;99.90;;;;;;5133372;27;20930;-72
2022/04/01 10:35:26;;;;;;;5.50;3.60;;;4.50;99.90;;;;;;5132877;27;20535;-72
2022/04/01 10:37:55;;;;;;;4.70;3.70;;;4.60;99.90;;;;;;5118884;27;20627;-72
2022/04/01 10:40:25;;;;;;;3.73;3.40;;;4.60;99.90;;;;;;5133500;27;20519;-73
2022/04/01 10:42:52;;;;;;;4.67;3.80;;;4.80;99.90;;;;;;5133320;27;20541;-72
2022/04/01 10:45:25;;;;;;;4.33;2.80;;;4.70;99.90;;;;;;5132785;27;20457;-72
2022/04/01 10:53:38;;;;;;;3.90;2.90;;;4.70;99.90;;;;;;5122913;27;20422;-72
2022/04/01 10:56:34;;;;;;;4.07;2.90;;;4.60;99.90;;;;;;5132445;27;20452;-72
2022/04/01 10:59:11;;;;;;;4.30;2.80;;;4.60;99.90;;;;;;5132276;27;20491;-72
2022/04/01 11:01:39;;;;;;;3.30;2.33;;;4.80;99.90;;;;;;5133188;27;20890;-71
2022/04/01 11:04:27;;;;;;;2.87;2.30;;;4.60;99.90;;;;;;5132550;27;20867;-71
2022/04/01 11:06:57;;;;;;;2.97;2.40;;;4.60;99.90;;;;;;5132007;27;20532;-71
2022/04/01 11:09:40;;;;;;;2.10;1.90;;;5.30;99.90;;;;;;5121831;27;20488;-72
2022/04/01 11:12:23;;;;;;;3.10;2.07;;;4.60;99.90;;;;;;5130651;27;20461;-73
2022/04/01 11:15:14;;;;;;;3.97;2.13;;;4.80;99.90;;;;;;5133092;27;20441;-73
2022/04/01 11:18:09;;;;;;;3.77;2.27;;;4.70;99.90;;;;;;5132421;27;20458;-72
2022/04/01 11:20:40;;;;;;;4.50;2.73;;;4.70;99.90;;;;;;5096866;27;20476;-73
2022/04/01 11:23:14;;;;;;;2.20;1.60;;;4.80;99.90;;;;;;5132154;27;20537;-72
2022/04/01 11:25:55;;;;;;;3.33;2.40;;;4.80;99.90;;;;;;5132445;27;20445;-72
2022/04/01 11:28:25;;;;;;;2.63;2.20;;;4.70;99.90;;;;;;5131802;27;20461;-72
2022/04/01 11:31:12;;;;;;;2.40;2.13;;;4.80;99.90;;;;;;5132830;27;20469;-73
2022/04/01 11:33:40;;;;;;;3.23;2.10;;;4.80;99.90;;;;;;5132443;27;20498;-72
2022/04/01 11:36:07;;;;;;;4.00;2.73;;;4.90;99.90;;;;;;5130661;27;20463;-72
2022/04/01 11:38:36;;;;;;;3.40;2.90;;;5.10;99.90;;;;;;5119090;27;20487;-72
2022/04/01 11:41:03;;;;;;;3.27;2.40;;;5.40;99.90;;;;;;5131686;27;20883;-72
2022/04/01 11:43:34;;;;;;;3.50;2.03;;;5.00;99.90;;;;;;5132478;27;20851;-72
2022/04/01 11:46:04;;;;;;;2.67;2.23;;;5.20;99.90;;;;;;5131472;27;20455;-72
2022/04/01 11:48:33;;;;;;;2.50;2.27;;;5.00;99.90;;;;;;5132459;27;20447;-71
2022/04/01 11:51:02;;;;;;;4.47;2.80;;;4.80;99.90;;;;;;5131729;27;20476;-73
2022/04/01 11:53:31;;;;;;;2.77;1.93;;;4.80;99.90;;;;;;5132446;27;20529;-72
2022/04/01 11:56:00;;;;;;;2.70;2.50;;;4.90;99.90;;;;;;5132097;27;20805;-71
2022/04/01 11:58:34;;;;;;;3.10;2.80;;;5.00;99.90;;;;;;5131837;27;20450;-73
2022/04/01 12:01:01;;;;;;;3.27;2.97;;;5.00;99.90;;;;;;5131539;27;20567;-72
2022/04/01 12:03:28;;;;;;;4.00;3.40;;;5.70;99.90;;;;;;5131828;27;20539;-72
2022/04/01 12:08:41;;;;;;;3.23;2.50;;;4.90;99.90;;;;;;5131422;27;20995;-72
2022/04/01 12:08:42;;;;;;;3.30;2.60;;;5.00;99.90;;;;;;5119237;28;20452;-71
2022/04/01 12:11:10;;;;;;;2.63;2.30;;;4.80;99.90;;;;;;5131487;27;20535;-71
2022/04/01 12:13:47;;;;;;;3.30;2.93;;;4.80;99.90;;;;;;5132012;27;20518;-73
2022/04/01 12:16:14;;;;;;;3.20;2.90;;;4.90;99.90;;;;;;5130922;27;20473;-72
2022/04/01 12:18:45;;;;;;;3.63;3.20;;;6.20;99.90;;;;;;5128840;27;20461;-72
2022/04/01 12:21:16;;;;;;;4.10;3.20;;;4.90;99.90;;;;;;5121129;28;20474;-72
2022/04/01 12:23:46;;;;;;;3.47;3.17;;;4.60;99.90;;;;;;5131811;27;20478;-72
2022/04/01 12:26:15;;;;;;;5.33;4.20;;;4.70;99.90;;;;;;5134628;27;20450;-72
2022/04/01 12:28:44;;;;;;;4.90;4.20;;;4.50;99.90;;;;;;5135762;27;20529;-72
2022/04/01 12:31:18;;;;;;;3.90;3.33;;;4.50;99.90;;;;;;5135522;27;20447;-72
2022/04/01 12:33:47;;;;;;;4.23;3.30;;;4.50;99.90;;;;;;5135928;27;20957;-72
2022/04/01 12:36:14;;;;;;;4.00;3.53;;;5.00;99.90;;;;;;5133133;27;20950;-72
2022/04/01 12:38:42;;;;;;;4.57;3.30;;;4.90;99.90;;;;;;5123585;27;20553;-73
2022/04/01 12:41:17;;;;;;;5.30;4.50;;;4.50;99.90;;;;;;5134846;27;20568;-73
2022/04/01 12:43:45;;;;;;;6.40;5.30;;;4.80;99.90;;;;;;5135857;27;20434;-72
2022/04/01 12:46:14;;;;;;;4.00;3.60;;;6.10;99.90;;;;;;5134699;27;20546;-72
2022/04/01 12:48:46;;;;;;;4.63;4.10;;;4.80;99.90;;;;;;5135706;27;20449;-73
2022/04/01 12:51:19;;;;;;;3.87;3.40;;;4.80;99.90;;;;;;5134817;27;20810;-71
2022/04/01 12:53:57;;;;;;;4.17;3.33;;;4.90;99.90;;;;;;5135289;27;20466;-72
2022/04/01 12:56:27;;;;;;;5.13;4.63;;;4.90;99.90;;;;;;5134916;27;20456;-72
2022/04/01 12:58:56;;;;;;;4.73;3.90;;;5.60;99.90;;;;;;5135310;27;20499;-72
2022/04/01 13:01:26;;;;;;;4.73;4.23;;;4.70;99.90;;;;;;5135430;27;20535;-72
2022/04/01 13:03:55;;;;;;;4.40;4.00;;;4.70;99.90;;;;;;5135010;27;20479;-74
2022/04/01 13:06:25;;;;;;;5.20;4.30;;;4.80;99.90;;;;;;5134878;27;20850;-72
2022/04/01 13:09:04;;;;;;;5.50;4.67;;;4.50;99.90;;;;;;5123275;27;20456;-72
2022/04/01 13:11:41;;;;;;;4.63;3.80;;;4.40;99.90;;;;;;5135489;27;20447;-73
2022/04/01 13:14:20;;;;;;;5.87;4.17;;;4.40;99.90;;;;;;5134727;27;20487;-74
2022/04/01 13:16:48;;;;;;;4.87;3.60;;;5.40;99.90;;;;;;5134944;27;20439;-72
2022/04/01 13:19:20;;;;;;;5.07;4.07;;;4.30;99.90;;;;;;5134465;27;20454;-72
2022/04/01 13:21:47;;;;;;;5.67;4.53;;;4.40;99.90;;;;;;5134756;27;20479;-73
2022/04/01 13:24:18;;;;;;;5.23;4.40;;;4.50;99.90;;;;;;5134112;27;20539;-73
2022/04/01 13:26:47;;;;;;;5.83;4.83;;;4.50;99.90;;;;;;5134374;27;21038;-72
2022/04/01 13:29:14;;;;;;;6.37;5.70;;;4.50;99.90;;;;;;5134579;27;20501;-73
2022/04/01 13:31:41;;;;;;;6.23;4.80;;;4.40;99.90;;;;;;5134664;27;20531;-72
2022/04/01 13:34:08;;;;;;;7.30;6.33;;;4.30;99.90;;;;;;5134117;27;20448;-72
2022/04/01 13:36:35;;;;;;;5.63;5.03;;;4.30;99.90;;;;;;5128606;27;20452;-73
2022/04/01 13:39:03;;;;;;;6.43;5.60;;;4.60;99.90;;;;;;5124822;27;20491;-72
2022/04/01 13:41:30;;;;;;;5.80;4.40;;;4.80;99.90;;;;;;5134757;27;20569;-72
2022/04/01 13:43:58;;;;;;;5.60;5.03;;;4.40;99.90;;;;;;5134056;27;20483;-72
2022/04/01 13:46:25;;;;;;;5.73;5.13;;;4.60;99.90;;;;;;5133810;27;20535;-72
2022/04/01 13:48:53;;;;;;;7.53;5.80;;;4.70;99.90;;;;;;5134714;27;20441;-72
2022/04/01 13:51:20;;;;;;;7.47;5.77;;;4.70;99.90;;;;;;5133801;27;20462;-72
2022/04/01 13:53:47;;;;;;;6.90;5.53;;;4.80;99.90;;;;;;5134536;27;20442;-73
2022/04/01 13:56:14;;;;;;;6.50;5.30;;;5.00;99.90;;;;;;5133417;27;20492;-73